createdAt,value
2022-12-13T00:02:33.169Z,14.73
2022-12-13T00:05:20.855Z,13.73
2022-12-13T00:08:08.659Z,15.65
2022-12-13T00:11:01.397Z,14.60
2022-12-13T00:13:49.332Z,15.60
2022-12-13T00:16:36.964Z,15.55
2022-12-13T00:19:26.205Z,13.00
2022-12-13T00:22:13.873Z,13.75
2022-12-13T00:25:01.201Z,14.85
2022-12-13T00:27:48.973Z,13.63
2022-12-13T00:30:36.833Z,13.85
2022-12-13T00:33:24.461Z,14.50
2022-12-13T00:36:13.396Z,14.95
2022-12-13T00:39:04.131Z,14.45
2022-12-13T00:41:51.747Z,15.30
2022-12-13T00:44:39.120Z,16.13
2022-12-13T00:47:26.845Z,15.20
2022-12-13T00:50:14.755Z,16.35
2022-12-13T00:53:03.755Z,14.55
2022-12-13T00:55:51.142Z,14.27
2022-12-13T00:58:38.894Z,13.52
2022-12-13T01:01:28.425Z,15.25
2022-12-13T01:04:15.939Z,14.60
2022-12-13T01:07:03.533Z,15.60
2022-12-13T01:09:52.725Z,14.55
2022-12-13T01:12:42.990Z,15.57
2022-12-13T01:15:33.858Z,13.63
2022-12-13T01:18:24.381Z,14.45
2022-12-13T01:21:17.187Z,17.02
2022-12-13T01:24:09.167Z,14.52
2022-12-13T01:27:01.593Z,14.10
2022-12-13T01:29:52.028Z,14.18
2022-12-13T01:32:42.537Z,14.77
2022-12-13T01:35:33.754Z,15.13
2022-12-13T01:38:26.430Z,14.80
2022-12-13T01:41:19.228Z,15.25
2022-12-13T01:44:49.136Z,15.65
2022-12-13T01:47:43.747Z,16.63
2022-12-13T01:50:35.423Z,13.68
2022-12-13T01:53:26.178Z,14.93
2022-12-13T01:56:21.192Z,13.90
2022-12-13T01:59:15.167Z,15.30
2022-12-13T02:04:59.240Z,12.07
2022-12-13T02:07:51.272Z,13.93
2022-12-13T02:10:42.672Z,13.57
2022-12-13T02:13:33.142Z,14.25
2022-12-13T02:16:36.744Z,13.90
2022-12-13T02:19:56.996Z,13.85
2022-12-13T02:23:03.955Z,14.65
2022-12-13T02:26:14.720Z,13.27
2022-12-13T02:29:30.339Z,13.73
2022-12-13T02:32:24.513Z,12.52
2022-12-13T02:35:18.927Z,15.18
2022-12-13T02:38:12.679Z,12.68
2022-12-13T02:41:08.216Z,14.57
2022-12-13T02:44:01.495Z,13.85
2022-12-13T02:46:53.703Z,13.35
2022-12-13T02:49:48.087Z,13.73
2022-12-13T02:52:36.428Z,12.07
2022-12-13T02:55:27.939Z,12.70
2022-12-13T02:58:20.656Z,13.85
2022-12-13T03:01:40.698Z,12.30
2022-12-13T03:05:02.356Z,12.30
2022-12-13T03:08:01.917Z,12.48
2022-12-13T03:10:59.961Z,14.32
2022-12-13T03:13:53.171Z,11.95
2022-12-13T03:16:45.099Z,12.43
2022-12-13T03:19:32.915Z,13.32
2022-12-13T03:22:20.303Z,11.93
2022-12-13T03:25:10.413Z,12.02
2022-12-13T03:27:57.664Z,13.75
2022-12-13T03:30:48.871Z,12.77
2022-12-13T03:33:38.783Z,13.50
2022-12-13T03:36:27.044Z,11.88
2022-12-13T03:39:14.608Z,13.15
2022-12-13T03:42:03.450Z,11.70
2022-12-13T03:44:51.030Z,14.23
2022-12-13T03:47:38.775Z,11.38
2022-12-13T03:50:27.609Z,11.40
2022-12-13T03:53:22.644Z,10.50
2022-12-13T03:56:20.007Z,12.82
2022-12-13T03:59:09.360Z,13.40
2022-12-13T04:01:56.906Z,10.43
2022-12-13T04:04:44.188Z,11.52
2022-12-13T04:07:34.184Z,12.80
2022-12-13T04:10:26.371Z,10.95
2022-12-13T04:13:31.694Z,11.27
2022-12-13T04:16:21.052Z,10.93
2022-12-13T04:19:08.524Z,11.52
2022-12-13T04:21:56.144Z,11.25
2022-12-13T04:24:43.524Z,10.75
2022-12-13T04:27:31.159Z,13.38
2022-12-13T04:30:18.943Z,11.75
2022-12-13T04:33:07.974Z,11.63
2022-12-13T04:35:55.267Z,11.98
2022-12-13T04:38:42.461Z,11.88
2022-12-13T04:41:34.467Z,11.70
2022-12-13T04:44:28.923Z,11.75
2022-12-13T04:47:17.088Z,10.20
2022-12-13T04:50:06.044Z,12.38
2022-12-13T04:52:53.356Z,10.65
2022-12-13T04:55:40.563Z,10.98
2022-12-13T04:58:28.689Z,11.95
2022-12-13T05:01:15.901Z,11.57
2022-12-13T05:04:03.360Z,10.63
2022-12-13T05:06:51.823Z,13.75
2022-12-13T05:09:39.143Z,11.73
2022-12-13T05:12:26.419Z,13.60
2022-12-13T05:15:14.338Z,11.80
2022-12-13T05:18:09.872Z,11.68
2022-12-13T05:20:57.735Z,10.35
2022-12-13T05:23:46.386Z,10.45
2022-12-13T05:26:33.750Z,11.80
2022-12-13T05:29:21.035Z,11.30
2022-12-13T05:32:08.341Z,11.95
2022-12-13T05:34:56.063Z,12.15
2022-12-13T05:37:43.797Z,12.45
2022-12-13T05:40:33.783Z,11.95
2022-12-13T05:43:22.410Z,12.05
2022-12-13T05:46:10.276Z,11.43
2022-12-13T05:48:58.256Z,10.75
2022-12-13T05:51:45.988Z,9.95
2022-12-13T05:54:33.564Z,10.63
2022-12-13T05:57:22.517Z,11.85
2022-12-13T06:00:28.312Z,12.10
2022-12-13T06:03:17.200Z,9.85
2022-12-13T06:06:05.154Z,10.80
2022-12-13T06:08:52.639Z,11.30
2022-12-13T06:11:43.244Z,11.57
2022-12-13T06:14:32.406Z,13.20
2022-12-13T06:17:21.608Z,10.30
2022-12-13T06:20:23.364Z,11.18
2022-12-13T06:23:12.332Z,10.65
2022-12-13T06:26:00.416Z,11.98
2022-12-13T06:28:47.897Z,11.90
2022-12-13T06:31:37.045Z,11.02
2022-12-13T06:34:24.497Z,10.70
2022-12-13T06:37:14.280Z,11.15
2022-12-13T06:40:01.984Z,10.02
2022-12-13T06:42:49.692Z,10.82
2022-12-13T06:45:40.420Z,11.95
2022-12-13T06:48:29.491Z,10.82
2022-12-13T06:51:22.869Z,10.75
2022-12-13T06:54:10.707Z,12.07
2022-12-13T06:56:58.322Z,9.95
2022-12-13T06:59:45.911Z,12.43
2022-12-13T07:02:33.864Z,11.50
2022-12-13T07:05:22.779Z,9.32
2022-12-13T07:08:10.979Z,10.43
2022-12-13T07:10:58.723Z,10.63
2022-12-13T07:13:45.889Z,10.80
2022-12-13T07:16:33.222Z,10.60
2022-12-13T07:19:23.982Z,10.65
2022-12-13T07:22:13.239Z,9.77
2022-12-13T07:25:00.552Z,9.70
2022-12-13T07:27:47.814Z,10.93
2022-12-13T07:30:40.893Z,9.88
2022-12-13T07:33:29.730Z,12.30
2022-12-13T07:36:18.043Z,12.35
2022-12-13T07:39:06.598Z,10.60
2022-12-13T07:41:54.724Z,11.30
2022-12-13T07:44:42.011Z,8.85
2022-12-13T07:47:30.648Z,11.48
2022-12-13T07:50:24.628Z,10.77
2022-12-13T07:53:13.309Z,9.82
2022-12-13T07:56:04.143Z,9.63
2022-12-13T07:58:51.083Z,10.32
2022-12-13T08:01:38.550Z,10.32
2022-12-13T08:04:25.922Z,11.13
2022-12-13T08:07:13.407Z,10.50
2022-12-13T08:10:00.494Z,12.77
2022-12-13T08:12:50.111Z,9.68
2022-12-13T08:15:37.248Z,11.32
2022-12-13T08:18:24.520Z,10.43
2022-12-13T08:21:51.968Z,9.25
2022-12-13T08:24:19.256Z,10.05
2022-12-13T08:27:06.641Z,8.75
2022-12-13T08:29:55.567Z,10.20
2022-12-13T08:32:42.942Z,10.93
2022-12-13T08:35:34.033Z,10.07
2022-12-13T08:38:22.859Z,9.05
2022-12-13T08:41:10.386Z,10.43
2022-12-13T08:43:57.707Z,10.73
2022-12-13T08:46:46.379Z,9.40
2022-12-13T08:49:33.361Z,11.13
2022-12-13T08:52:21.969Z,9.77
2022-12-13T08:55:09.578Z,9.45
2022-12-13T08:57:56.770Z,10.90
2022-12-13T09:00:48.341Z,12.93
2022-12-13T09:03:37.521Z,7.60
2022-12-13T09:06:24.993Z,7.85
2022-12-13T09:09:12.981Z,8.45
2022-12-13T09:12:00.618Z,7.78
2022-12-13T09:14:48.406Z,8.70
2022-12-13T09:17:37.139Z,8.27
2022-12-13T09:20:29.743Z,7.85
2022-12-13T09:23:23.391Z,9.07
2022-12-13T09:26:15.073Z,9.05
2022-12-13T09:29:11.025Z,9.23
2022-12-13T09:31:59.244Z,7.43
2022-12-13T09:34:46.776Z,9.73
2022-12-13T09:37:39.857Z,9.32
2022-12-13T09:40:30.940Z,8.80
2022-12-13T09:43:31.837Z,9.02
2022-12-13T09:46:24.442Z,8.13
2022-12-13T09:49:13.800Z,9.15
2022-12-13T09:52:09.986Z,7.90
2022-12-13T09:55:00.138Z,8.13
2022-12-13T09:57:47.868Z,7.10
2022-12-13T10:00:37.503Z,10.05
2022-12-13T10:03:25.773Z,9.15
2022-12-13T10:06:22.691Z,9.15
2022-12-13T10:09:12.427Z,10.02
2022-12-13T10:12:01.068Z,10.02
2022-12-13T10:14:50.552Z,10.25
2022-12-13T10:17:39.637Z,9.65
2022-12-13T10:20:29.048Z,9.15
2022-12-13T10:23:38.718Z,7.93
2022-12-13T10:26:25.008Z,9.18
2022-12-13T10:29:13.987Z,7.88
2022-12-13T10:32:12.998Z,7.53
2022-12-13T10:35:00.516Z,6.75
2022-12-13T10:37:47.903Z,8.82
2022-12-13T10:40:36.723Z,10.32
2022-12-13T10:43:24.773Z,8.48
2022-12-13T10:46:25.028Z,7.75
2022-12-13T10:49:17.524Z,8.50
2022-12-13T10:52:04.810Z,8.38
2022-12-13T10:54:52.543Z,9.10
2022-12-13T10:57:52.297Z,7.68
2022-12-13T11:00:42.567Z,8.38
2022-12-13T11:03:32.536Z,9.02
2022-12-13T11:06:20.101Z,8.95
2022-12-13T11:09:23.190Z,9.43
2022-12-13T11:12:14.664Z,8.77
2022-12-13T11:15:03.680Z,8.63
2022-12-13T11:17:53.013Z,8.57
2022-12-13T11:20:54.087Z,8.63
2022-12-13T11:23:44.720Z,9.07
2022-12-13T11:26:34.704Z,7.30
2022-12-13T11:29:30.595Z,8.75
2022-12-13T11:32:23.587Z,8.18
2022-12-13T11:35:15.643Z,6.97
2022-12-13T11:38:07.329Z,7.15
2022-12-13T11:40:56.842Z,8.15
2022-12-13T11:43:47.874Z,6.75
2022-12-13T11:46:38.642Z,7.95
2022-12-13T11:49:30.690Z,8.38
2022-12-13T11:52:20.035Z,7.65
2022-12-13T11:55:16.283Z,6.88
2022-12-13T11:58:05.929Z,7.85
2022-12-13T12:00:56.985Z,8.40
2022-12-13T12:03:46.715Z,7.07
2022-12-13T12:06:39.952Z,6.85
2022-12-13T12:09:29.234Z,7.85
2022-12-13T12:12:22.170Z,7.43
2022-12-13T12:15:15.646Z,7.75
2022-12-13T12:18:03.604Z,8.18
2022-12-13T12:21:01.568Z,7.82
2022-12-13T12:24:00.459Z,7.28
2022-12-13T12:26:51.198Z,8.48
2022-12-13T12:29:48.285Z,6.22
2022-12-13T12:32:42.548Z,6.80
2022-12-13T12:35:51.443Z,6.40
2022-12-13T12:38:47.987Z,6.78
2022-12-13T12:41:45.260Z,7.32
2022-12-13T12:44:38.459Z,6.00
2022-12-13T12:48:04.922Z,6.85
2022-12-13T12:50:43.944Z,6.20
2022-12-13T12:53:36.227Z,5.55
2022-12-13T12:56:31.323Z,6.47
2022-12-13T12:59:23.225Z,5.88
2022-12-13T13:02:17.282Z,5.38
2022-12-13T13:07:56.214Z,6.70
2022-12-13T13:10:49.696Z,5.88
2022-12-13T13:13:46.582Z,6.80
2022-12-13T13:16:36.156Z,6.05
2022-12-13T13:19:39.224Z,6.32
2022-12-13T13:22:33.245Z,6.35
2022-12-13T13:25:33.021Z,6.35
2022-12-13T13:28:23.201Z,6.13
2022-12-13T13:31:10.842Z,7.05
2022-12-13T13:33:58.508Z,6.47
2022-12-13T13:36:52.524Z,6.32
2022-12-13T13:39:58.851Z,6.97
2022-12-13T13:43:00.963Z,7.25
2022-12-13T13:45:57.218Z,6.95
2022-12-13T13:48:53.073Z,6.72
2022-12-13T13:55:12.543Z,6.43
2022-12-13T13:58:21.625Z,7.07
2022-12-13T14:01:31.168Z,7.03
2022-12-13T14:04:38.280Z,6.60
2022-12-13T14:07:45.982Z,6.90
2022-12-13T14:10:46.294Z,6.80
2022-12-13T14:13:47.920Z,6.90
2022-12-13T14:17:00.496Z,8.13
2022-12-13T14:20:05.557Z,5.25
2022-12-13T14:22:57.303Z,7.63
2022-12-13T14:25:52.552Z,7.43
2022-12-13T14:28:46.305Z,5.43
2022-12-13T14:31:37.593Z,7.33
2022-12-13T14:34:29.244Z,6.78
2022-12-13T14:37:27.112Z,5.88
2022-12-13T14:40:27.114Z,6.53
2022-12-13T14:43:24.559Z,7.47
2022-12-13T14:46:14.401Z,7.35
2022-12-13T14:49:03.831Z,7.20
2022-12-13T14:52:01.475Z,6.72
2022-12-13T14:54:50.254Z,6.97
2022-12-13T14:57:52.359Z,6.93
2022-12-13T15:00:41.565Z,6.35
2022-12-13T15:03:29.392Z,6.75
2022-12-13T15:06:19.132Z,7.72
2022-12-13T15:09:11.316Z,6.28
2022-12-13T15:12:15.078Z,7.68
2022-12-13T15:15:08.748Z,5.82
2022-12-13T15:18:06.323Z,5.65
2022-12-13T15:20:55.071Z,5.25
2022-12-13T15:23:49.169Z,6.63
2022-12-13T15:26:38.449Z,6.53
2022-12-13T15:29:26.399Z,6.70
2022-12-13T15:32:16.306Z,5.40
2022-12-13T15:35:15.625Z,5.47
2022-12-13T15:38:03.072Z,6.30
2022-12-13T15:40:50.794Z,5.60
2022-12-13T15:43:45.109Z,6.72
2022-12-13T15:46:33.343Z,6.15
2022-12-13T15:49:23.861Z,6.45
2022-12-13T15:52:25.521Z,6.05
2022-12-13T15:55:28.376Z,6.55
2022-12-13T15:58:25.611Z,6.70
2022-12-13T16:01:27.472Z,5.65
2022-12-13T16:04:22.540Z,5.18
2022-12-13T16:07:21.053Z,5.97
2022-12-13T16:10:09.488Z,4.72
2022-12-13T16:13:00.620Z,5.88
2022-12-13T16:15:59.870Z,5.72
2022-12-13T16:19:00.583Z,5.15
2022-12-13T16:21:48.260Z,5.10
2022-12-13T16:24:35.823Z,5.28
2022-12-13T16:27:23.335Z,5.05
2022-12-13T16:30:13.380Z,5.47
2022-12-13T16:33:18.559Z,5.70
2022-12-13T16:36:08.144Z,5.82
2022-12-13T16:38:55.844Z,5.93
2022-12-13T16:41:45.560Z,6.00
2022-12-13T16:44:36.048Z,6.40
2022-12-13T16:47:36.467Z,7.20
2022-12-13T16:50:28.895Z,7.03
2022-12-13T16:53:18.176Z,5.78
2022-12-13T16:56:05.493Z,6.13
2022-12-13T16:58:52.743Z,6.15
2022-12-13T17:01:40.032Z,6.45
2022-12-13T17:04:28.524Z,5.72
2022-12-13T17:07:16.178Z,7.13
2022-12-13T17:10:04.888Z,6.80
2022-12-13T17:12:52.412Z,6.20
2022-12-13T17:15:40.204Z,6.05
2022-12-13T17:18:27.254Z,6.10
2022-12-13T17:21:14.521Z,6.45
2022-12-13T17:24:02.956Z,6.78
2022-12-13T17:26:54.404Z,7.32
2022-12-13T17:29:41.915Z,5.82
2022-12-13T17:32:29.636Z,6.10
2022-12-13T17:35:18.561Z,7.13
2022-12-13T17:38:05.808Z,7.20
2022-12-13T17:40:54.583Z,7.25
2022-12-13T17:43:44.289Z,5.80
2022-12-13T17:46:31.574Z,7.32
2022-12-13T17:49:18.997Z,6.40
2022-12-13T17:52:06.446Z,6.45
2022-12-13T17:54:53.347Z,6.28
2022-12-13T17:57:40.523Z,6.68
2022-12-13T18:00:29.203Z,6.45
2022-12-13T18:03:16.619Z,7.60
2022-12-13T18:06:03.871Z,6.07
2022-12-13T18:08:51.319Z,7.68
2022-12-13T18:11:39.686Z,6.53
2022-12-13T18:14:27.310Z,5.88
2022-12-13T18:17:15.487Z,7.82
2022-12-13T18:20:02.927Z,6.00
2022-12-13T18:22:51.611Z,5.70
2022-12-13T18:25:39.372Z,7.15
2022-12-13T18:28:26.255Z,6.50
2022-12-13T18:31:15.366Z,5.85
2022-12-13T18:34:05.018Z,6.28
2022-12-13T18:36:52.119Z,6.22
2022-12-13T18:39:39.260Z,5.30
2022-12-13T18:42:26.573Z,6.53
2022-12-13T18:45:14.618Z,5.70
2022-12-13T18:48:01.772Z,6.10
2022-12-13T18:50:50.625Z,6.38
2022-12-13T18:53:38.424Z,6.50
2022-12-13T18:56:26.216Z,6.28
2022-12-13T18:59:14.176Z,6.18
2022-12-13T19:02:02.034Z,6.13
2022-12-13T19:04:55.320Z,7.18
2022-12-13T19:07:44.551Z,6.53
2022-12-13T19:10:31.579Z,5.82
2022-12-13T19:13:18.851Z,6.22
2022-12-13T19:16:06.927Z,6.20
2022-12-13T19:18:54.452Z,6.20
2022-12-13T19:21:41.840Z,5.85
2022-12-13T19:24:30.634Z,6.03
2022-12-13T19:27:17.709Z,5.63
2022-12-13T19:30:05.212Z,5.85
2022-12-13T19:32:52.613Z,5.95
2022-12-13T19:35:41.277Z,5.35
2022-12-13T19:38:28.511Z,5.10
2022-12-13T19:41:19.451Z,4.88
2022-12-13T19:44:06.799Z,4.85
2022-12-13T19:46:56.001Z,4.47
2022-12-13T19:49:43.322Z,5.25
2022-12-13T19:52:30.586Z,5.68
2022-12-13T19:55:17.971Z,4.80
2022-12-13T19:58:06.679Z,4.57
2022-12-13T20:00:54.217Z,4.45
2022-12-13T20:03:42.191Z,5.72
2022-12-13T20:06:29.222Z,4.65
2022-12-13T20:09:16.712Z,5.07
2022-12-13T20:12:04.181Z,4.82
2022-12-13T20:14:53.086Z,5.03
2022-12-13T20:17:40.340Z,4.68
2022-12-13T20:20:40.879Z,3.92
2022-12-13T20:23:35.106Z,3.50
2022-12-13T20:26:23.328Z,3.85
2022-12-13T20:29:10.593Z,4.43
2022-12-13T20:31:59.297Z,4.20
2022-12-13T20:34:51.744Z,5.05
2022-12-13T20:37:42.879Z,3.75
2022-12-13T20:40:35.407Z,4.32
2022-12-13T20:43:22.741Z,4.40
2022-12-13T20:46:11.108Z,4.60
2022-12-13T20:49:02.197Z,3.83
2022-12-13T20:51:49.193Z,4.53
2022-12-13T20:54:36.579Z,4.15
2022-12-13T20:57:23.781Z,4.60
2022-12-13T21:00:11.675Z,4.35
2022-12-13T21:02:58.995Z,3.83
2022-12-13T21:05:47.771Z,4.63
2022-12-13T21:08:53.946Z,4.13
2022-12-13T21:11:42.167Z,4.28
2022-12-13T21:14:30.073Z,3.85
2022-12-13T21:17:17.299Z,3.00
2022-12-13T21:20:04.662Z,4.13
2022-12-13T21:22:53.404Z,3.88
2022-12-13T21:25:40.819Z,3.67
2022-12-13T21:28:28.162Z,2.65
2022-12-13T21:31:15.548Z,3.83
2022-12-13T21:34:03.496Z,3.58
2022-12-13T21:36:52.226Z,3.10
2022-12-13T21:39:40.902Z,4.68
2022-12-13T21:42:28.126Z,3.35
2022-12-13T21:45:15.579Z,4.18
2022-12-13T21:48:03.024Z,4.35
2022-12-13T21:50:50.664Z,4.25
2022-12-13T21:53:37.659Z,4.18
2022-12-13T21:56:44.509Z,3.30
2022-12-13T21:59:31.895Z,4.07
2022-12-13T22:02:19.811Z,3.78
2022-12-13T22:05:07.726Z,4.07
2022-12-13T22:07:55.000Z,4.50
2022-12-13T22:10:56.045Z,3.40
2022-12-13T22:13:44.697Z,2.75
2022-12-13T22:16:35.815Z,3.83
2022-12-13T22:19:22.828Z,3.00
2022-12-13T22:22:11.008Z,2.80
2022-12-13T22:24:58.528Z,3.67
2022-12-13T22:27:45.744Z,4.30
2022-12-13T22:30:35.155Z,3.42
2022-12-13T22:33:22.575Z,4.63
2022-12-13T22:36:10.137Z,3.83
2022-12-13T22:38:57.089Z,3.28
2022-12-13T22:41:44.604Z,4.05
2022-12-13T22:44:31.651Z,3.47
2022-12-13T22:47:20.301Z,4.95
2022-12-13T22:50:08.342Z,4.00
2022-12-13T22:52:55.538Z,4.38
2022-12-13T22:55:42.882Z,3.60
2022-12-13T22:58:30.284Z,3.60
2022-12-13T23:01:18.424Z,3.30
2022-12-13T23:04:07.582Z,3.78
2022-12-13T23:06:55.048Z,4.03
2022-12-13T23:09:42.336Z,2.83
2022-12-13T23:12:47.160Z,4.18
2022-12-13T23:15:37.865Z,3.35
2022-12-13T23:18:25.569Z,3.85
2022-12-13T23:21:14.476Z,2.97
2022-12-13T23:24:01.773Z,3.30
2022-12-13T23:26:48.773Z,3.72
2022-12-13T23:29:36.153Z,4.18
2022-12-13T23:32:23.472Z,3.40
2022-12-13T23:35:12.643Z,3.60
2022-12-13T23:38:01.151Z,3.92
2022-12-13T23:40:48.519Z,4.35
2022-12-13T23:43:35.923Z,3.28
2022-12-13T23:46:24.327Z,3.00
2022-12-13T23:49:11.392Z,3.40
2022-12-13T23:51:58.961Z,3.15
2022-12-13T23:54:47.334Z,2.63
2022-12-13T23:57:34.843Z,3.50
